sensor_id;sensor_type;location;lat;lon;timestamp;temperature;humidity
22173;DHT22;11252;50.596;17.648;2023-05-31T00:01:25;11.00;92.20
22173;DHT22;11252;50.596;17.648;2023-05-31T00:03:52;11.00;92.20
22173;DHT22;11252;50.596;17.648;2023-05-31T00:06:20;11.00;92.20
22173;DHT22;11252;50.596;17.648;2023-05-31T00:08:48;10.90;92.20
22173;DHT22;11252;50.596;17.648;2023-05-31T00:11:15;10.90;92.20
22173;DHT22;11252;50.596;17.648;2023-05-31T00:13:42;10.80;92.20
22173;DHT22;11252;50.596;17.648;2023-05-31T00:16:10;10.80;92.20
22173;DHT22;11252;50.596;17.648;2023-05-31T00:18:54;10.70;92.20
22173;DHT22;11252;50.596;17.648;2023-05-31T00:21:23;10.70;92.20
22173;DHT22;11252;50.596;17.648;2023-05-31T00:23:50;10.70;92.20
22173;DHT22;11252;50.596;17.648;2023-05-31T00:26:18;10.60;92.20
22173;DHT22;11252;50.596;17.648;2023-05-31T00:28:45;10.60;92.20
22173;DHT22;11252;50.596;17.648;2023-05-31T00:31:12;10.60;92.20
22173;DHT22;11252;50.596;17.648;2023-05-31T00:33:40;10.60;92.20
22173;DHT22;11252;50.596;17.648;2023-05-31T00:36:07;10.50;92.20
22173;DHT22;11252;50.596;17.648;2023-05-31T00:38:35;10.50;92.20
22173;DHT22;11252;50.596;17.648;2023-05-31T00:41:02;10.50;92.20
22173;DHT22;11252;50.596;17.648;2023-05-31T00:43:29;10.40;92.20
22173;DHT22;11252;50.596;17.648;2023-05-31T00:45:57;10.40;92.20
22173;DHT22;11252;50.596;17.648;2023-05-31T00:48:24;10.40;92.20
22173;DHT22;11252;50.596;17.648;2023-05-31T00:50:52;10.40;92.20
22173;DHT22;11252;50.596;17.648;2023-05-31T00:53:21;10.40;92.20
22173;DHT22;11252;50.596;17.648;2023-05-31T00:55:52;10.30;92.20
22173;DHT22;11252;50.596;17.648;2023-05-31T00:58:20;10.20;92.20
22173;DHT22;11252;50.596;17.648;2023-05-31T01:00:50;10.20;92.20
22173;DHT22;11252;50.596;17.648;2023-05-31T01:03:17;10.20;92.20
22173;DHT22;11252;50.596;17.648;2023-05-31T01:05:46;10.10;92.20
22173;DHT22;11252;50.596;17.648;2023-05-31T01:08:14;10.10;92.20
22173;DHT22;11252;50.596;17.648;2023-05-31T01:10:41;10.00;92.20
22173;DHT22;11252;50.596;17.648;2023-05-31T01:16:02;9.90;92.20
22173;DHT22;11252;50.596;17.648;2023-05-31T01:18:40;9.90;92.20
22173;DHT22;11252;50.596;17.648;2023-05-31T01:21:12;9.90;92.20
22173;DHT22;11252;50.596;17.648;2023-05-31T01:26:46;9.70;92.20
22173;DHT22;11252;50.596;17.648;2023-05-31T01:29:20;9.70;92.20
22173;DHT22;11252;50.596;17.648;2023-05-31T01:31:48;9.70;92.20
22173;DHT22;11252;50.596;17.648;2023-05-31T01:34:18;9.70;92.20
22173;DHT22;11252;50.596;17.648;2023-05-31T01:36:45;9.70;92.20
22173;DHT22;11252;50.596;17.648;2023-05-31T01:39:13;9.60;92.20
22173;DHT22;11252;50.596;17.648;2023-05-31T01:41:42;9.60;92.20
22173;DHT22;11252;50.596;17.648;2023-05-31T01:44:11;9.50;92.20
22173;DHT22;11252;50.596;17.648;2023-05-31T01:46:41;9.40;92.20
22173;DHT22;11252;50.596;17.648;2023-05-31T01:49:11;9.40;92.20
22173;DHT22;11252;50.596;17.648;2023-05-31T01:51:41;9.40;92.20
22173;DHT22;11252;50.596;17.648;2023-05-31T01:54:10;9.30;92.20
22173;DHT22;11252;50.596;17.648;2023-05-31T01:56:38;9.30;92.20
22173;DHT22;11252;50.596;17.648;2023-05-31T01:59:07;9.30;92.20
22173;DHT22;11252;50.596;17.648;2023-05-31T02:01:36;9.30;92.20
22173;DHT22;11252;50.596;17.648;2023-05-31T02:04:03;9.30;92.20
22173;DHT22;11252;50.596;17.648;2023-05-31T02:06:35;9.30;92.20
22173;DHT22;11252;50.596;17.648;2023-05-31T02:09:05;9.20;92.20
22173;DHT22;11252;50.596;17.648;2023-05-31T02:11:33;9.20;92.20
22173;DHT22;11252;50.596;17.648;2023-05-31T02:14:01;9.10;92.20
22173;DHT22;11252;50.596;17.648;2023-05-31T02:16:29;9.00;92.20
22173;DHT22;11252;50.596;17.648;2023-05-31T02:18:56;9.00;92.20
22173;DHT22;11252;50.596;17.648;2023-05-31T02:21:25;8.90;92.20
22173;DHT22;11252;50.596;17.648;2023-05-31T02:23:52;8.90;92.20
22173;DHT22;11252;50.596;17.648;2023-05-31T02:26:20;8.90;92.20
22173;DHT22;11252;50.596;17.648;2023-05-31T02:28:49;8.90;92.20
22173;DHT22;11252;50.596;17.648;2023-05-31T02:31:16;8.70;92.20
22173;DHT22;11252;50.596;17.648;2023-05-31T02:33:43;8.70;92.20
22173;DHT22;11252;50.596;17.648;2023-05-31T02:36:11;8.70;92.20
22173;DHT22;11252;50.596;17.648;2023-05-31T02:38:38;8.60;92.20
22173;DHT22;11252;50.596;17.648;2023-05-31T02:41:06;8.60;92.20
22173;DHT22;11252;50.596;17.648;2023-05-31T02:43:33;8.60;92.20
22173;DHT22;11252;50.596;17.648;2023-05-31T02:46:00;8.70;92.20
22173;DHT22;11252;50.596;17.648;2023-05-31T02:48:29;8.70;92.20
22173;DHT22;11252;50.596;17.648;2023-05-31T02:50:56;8.70;92.20
22173;DHT22;11252;50.596;17.648;2023-05-31T02:53:24;8.70;92.20
22173;DHT22;11252;50.596;17.648;2023-05-31T02:55:53;8.60;92.20
22173;DHT22;11252;50.596;17.648;2023-05-31T02:58:21;8.60;92.20
22173;DHT22;11252;50.596;17.648;2023-05-31T03:00:48;8.70;92.20
22173;DHT22;11252;50.596;17.648;2023-05-31T03:03:16;8.70;92.20
22173;DHT22;11252;50.596;17.648;2023-05-31T03:05:45;8.60;92.20
22173;DHT22;11252;50.596;17.648;2023-05-31T03:08:13;8.60;92.20
22173;DHT22;11252;50.596;17.648;2023-05-31T03:10:40;8.70;92.20
22173;DHT22;11252;50.596;17.648;2023-05-31T03:13:07;8.70;92.20
22173;DHT22;11252;50.596;17.648;2023-05-31T03:15:35;8.70;92.20
22173;DHT22;11252;50.596;17.648;2023-05-31T03:18:03;8.70;92.20
22173;DHT22;11252;50.596;17.648;2023-05-31T03:20:30;8.70;92.20
22173;DHT22;11252;50.596;17.648;2023-05-31T03:23:00;8.70;92.20
22173;DHT22;11252;50.596;17.648;2023-05-31T03:25:27;8.80;92.20
22173;DHT22;11252;50.596;17.648;2023-05-31T03:27:55;8.80;92.20
22173;DHT22;11252;50.596;17.648;2023-05-31T03:30:24;8.80;92.20
22173;DHT22;11252;50.596;17.648;2023-05-31T03:32:52;8.80;92.20
22173;DHT22;11252;50.596;17.648;2023-05-31T03:35:19;8.90;92.20
22173;DHT22;11252;50.596;17.648;2023-05-31T03:37:46;8.80;92.20
22173;DHT22;11252;50.596;17.648;2023-05-31T03:40:13;8.90;92.20
22173;DHT22;11252;50.596;17.648;2023-05-31T03:42:41;8.90;92.20
22173;DHT22;11252;50.596;17.648;2023-05-31T03:45:08;9.00;92.20
22173;DHT22;11252;50.596;17.648;2023-05-31T03:47:36;9.10;92.20
22173;DHT22;11252;50.596;17.648;2023-05-31T03:50:04;9.10;92.20
22173;DHT22;11252;50.596;17.648;2023-05-31T03:52:32;9.20;92.20
22173;DHT22;11252;50.596;17.648;2023-05-31T03:55:00;9.20;92.20
22173;DHT22;11252;50.596;17.648;2023-05-31T03:57:27;9.30;92.20
22173;DHT22;11252;50.596;17.648;2023-05-31T03:59:54;9.30;92.20
22173;DHT22;11252;50.596;17.648;2023-05-31T04:02:22;9.40;92.20
22173;DHT22;11252;50.596;17.648;2023-05-31T04:04:50;9.40;92.20
22173;DHT22;11252;50.596;17.648;2023-05-31T04:07:17;9.60;92.20
22173;DHT22;11252;50.596;17.648;2023-05-31T04:09:45;9.60;92.20
22173;DHT22;11252;50.596;17.648;2023-05-31T04:12:12;9.60;92.20
22173;DHT22;11252;50.596;17.648;2023-05-31T04:14:39;9.70;92.20
22173;DHT22;11252;50.596;17.648;2023-05-31T04:17:07;9.80;92.20
22173;DHT22;11252;50.596;17.648;2023-05-31T04:19:34;9.90;92.20
22173;DHT22;11252;50.596;17.648;2023-05-31T04:22:01;10.10;92.20
22173;DHT22;11252;50.596;17.648;2023-05-31T04:24:29;10.20;92.20
22173;DHT22;11252;50.596;17.648;2023-05-31T04:26:56;10.30;92.20
22173;DHT22;11252;50.596;17.648;2023-05-31T04:29:23;10.50;92.20
22173;DHT22;11252;50.596;17.648;2023-05-31T04:31:52;10.70;92.20
22173;DHT22;11252;50.596;17.648;2023-05-31T04:34:20;10.90;92.20
22173;DHT22;11252;50.596;17.648;2023-05-31T04:36:47;11.10;92.20
22173;DHT22;11252;50.596;17.648;2023-05-31T04:39:17;11.30;92.20
22173;DHT22;11252;50.596;17.648;2023-05-31T04:41:44;11.40;92.20
22173;DHT22;11252;50.596;17.648;2023-05-31T04:44:12;11.60;92.20
22173;DHT22;11252;50.596;17.648;2023-05-31T04:46:39;11.80;92.20
22173;DHT22;11252;50.596;17.648;2023-05-31T04:49:09;12.00;92.20
22173;DHT22;11252;50.596;17.648;2023-05-31T04:51:37;12.20;92.20
22173;DHT22;11252;50.596;17.648;2023-05-31T04:54:04;12.30;92.20
22173;DHT22;11252;50.596;17.648;2023-05-31T04:56:32;12.50;92.20
22173;DHT22;11252;50.596;17.648;2023-05-31T04:59:00;12.80;92.20
22173;DHT22;11252;50.596;17.648;2023-05-31T05:01:28;13.00;92.20
22173;DHT22;11252;50.596;17.648;2023-05-31T05:03:55;13.30;92.20
22173;DHT22;11252;50.596;17.648;2023-05-31T05:06:22;13.60;92.20
22173;DHT22;11252;50.596;17.648;2023-05-31T05:08:50;13.80;92.20
22173;DHT22;11252;50.596;17.648;2023-05-31T05:11:18;14.10;91.40
22173;DHT22;11252;50.596;17.648;2023-05-31T05:13:45;14.30;90.80
22173;DHT22;11252;50.596;17.648;2023-05-31T05:16:12;14.60;89.40
22173;DHT22;11252;50.596;17.648;2023-05-31T05:18:40;14.90;88.50
22173;DHT22;11252;50.596;17.648;2023-05-31T05:21:07;15.10;87.90
22173;DHT22;11252;50.596;17.648;2023-05-31T05:23:34;15.20;87.70
22173;DHT22;11252;50.596;17.648;2023-05-31T05:26:05;15.30;87.40
22173;DHT22;11252;50.596;17.648;2023-05-31T05:28:32;15.40;87.10
22173;DHT22;11252;50.596;17.648;2023-05-31T05:31:00;15.50;86.90
22173;DHT22;11252;50.596;17.648;2023-05-31T05:33:28;15.80;86.90
22173;DHT22;11252;50.596;17.648;2023-05-31T05:35:55;16.10;85.30
22173;DHT22;11252;50.596;17.648;2023-05-31T05:38:23;16.50;84.40
22173;DHT22;11252;50.596;17.648;2023-05-31T05:40:50;16.70;84.20
22173;DHT22;11252;50.596;17.648;2023-05-31T05:43:17;17.00;82.70
22173;DHT22;11252;50.596;17.648;2023-05-31T05:45:44;17.20;82.70
22173;DHT22;11252;50.596;17.648;2023-05-31T05:48:12;17.30;82.70
22173;DHT22;11252;50.596;17.648;2023-05-31T05:50:39;17.50;82.20
22173;DHT22;11252;50.596;17.648;2023-05-31T05:53:06;17.60;82.10
22173;DHT22;11252;50.596;17.648;2023-05-31T05:55:34;17.70;82.30
22173;DHT22;11252;50.596;17.648;2023-05-31T05:58:04;17.80;81.50
22173;DHT22;11252;50.596;17.648;2023-05-31T06:00:31;18.10;80.70
22173;DHT22;11252;50.596;17.648;2023-05-31T06:02:59;18.20;80.40
22173;DHT22;11252;50.596;17.648;2023-05-31T06:05:26;18.50;80.20
22173;DHT22;11252;50.596;17.648;2023-05-31T06:07:55;18.80;78.80
22173;DHT22;11252;50.596;17.648;2023-05-31T06:10:23;18.80;78.30
22173;DHT22;11252;50.596;17.648;2023-05-31T06:12:50;19.00;77.40
22173;DHT22;11252;50.596;17.648;2023-05-31T06:15:18;18.90;77.40
22173;DHT22;11252;50.596;17.648;2023-05-31T06:17:45;18.90;79.30
22173;DHT22;11252;50.596;17.648;2023-05-31T06:20:15;19.10;78.70
22173;DHT22;11252;50.596;17.648;2023-05-31T06:22:44;19.20;78.90
22173;DHT22;11252;50.596;17.648;2023-05-31T06:25:14;19.30;79.10
22173;DHT22;11252;50.596;17.648;2023-05-31T06:27:41;19.60;78.40
22173;DHT22;11252;50.596;17.648;2023-05-31T06:30:09;19.80;78.10
22173;DHT22;11252;50.596;17.648;2023-05-31T06:32:37;20.00;74.90
22173;DHT22;11252;50.596;17.648;2023-05-31T06:35:05;19.80;76.90
22173;DHT22;11252;50.596;17.648;2023-05-31T06:37:33;20.00;77.10
22173;DHT22;11252;50.596;17.648;2023-05-31T06:40:01;20.10;75.20
22173;DHT22;11252;50.596;17.648;2023-05-31T06:42:30;20.20;76.10
22173;DHT22;11252;50.596;17.648;2023-05-31T06:44:58;20.40;76.70
22173;DHT22;11252;50.596;17.648;2023-05-31T06:47:25;20.70;75.50
22173;DHT22;11252;50.596;17.648;2023-05-31T06:49:52;20.90;75.30
22173;DHT22;11252;50.596;17.648;2023-05-31T06:52:20;21.10;75.00
22173;DHT22;11252;50.596;17.648;2023-05-31T06:54:49;21.20;73.50
22173;DHT22;11252;50.596;17.648;2023-05-31T06:57:18;21.30;74.20
22173;DHT22;11252;50.596;17.648;2023-05-31T06:59:45;21.60;74.00
22173;DHT22;11252;50.596;17.648;2023-05-31T07:02:13;21.70;73.60
22173;DHT22;11252;50.596;17.648;2023-05-31T07:04:40;21.70;74.30
22173;DHT22;11252;50.596;17.648;2023-05-31T07:07:08;21.70;74.20
22173;DHT22;11252;50.596;17.648;2023-05-31T07:09:38;21.80;75.30
22173;DHT22;11252;50.596;17.648;2023-05-31T07:12:06;22.10;74.00
22173;DHT22;11252;50.596;17.648;2023-05-31T07:14:34;22.40;72.60
22173;DHT22;11252;50.596;17.648;2023-05-31T07:17:03;22.60;70.90
22173;DHT22;11252;50.596;17.648;2023-05-31T07:19:30;22.90;70.00
22173;DHT22;11252;50.596;17.648;2023-05-31T07:21:58;22.90;68.80
22173;DHT22;11252;50.596;17.648;2023-05-31T07:24:25;22.90;71.00
22173;DHT22;11252;50.596;17.648;2023-05-31T07:26:53;23.10;70.00
22173;DHT22;11252;50.596;17.648;2023-05-31T07:29:20;23.40;71.10
22173;DHT22;11252;50.596;17.648;2023-05-31T07:31:47;23.30;71.90
22173;DHT22;11252;50.596;17.648;2023-05-31T07:34:15;23.40;71.20
22173;DHT22;11252;50.596;17.648;2023-05-31T07:36:42;23.60;68.80
22173;DHT22;11252;50.596;17.648;2023-05-31T07:39:10;23.50;70.40
22173;DHT22;11252;50.596;17.648;2023-05-31T07:41:37;23.60;69.80
22173;DHT22;11252;50.596;17.648;2023-05-31T07:44:05;23.90;71.00
22173;DHT22;11252;50.596;17.648;2023-05-31T07:46:32;24.10;69.50
22173;DHT22;11252;50.596;17.648;2023-05-31T07:49:00;24.40;69.30
22173;DHT22;11252;50.596;17.648;2023-05-31T07:51:28;24.60;69.10
22173;DHT22;11252;50.596;17.648;2023-05-31T07:53:56;24.50;68.10
22173;DHT22;11252;50.596;17.648;2023-05-31T07:56:24;24.60;68.10
22173;DHT22;11252;50.596;17.648;2023-05-31T07:58:52;25.00;65.60
22173;DHT22;11252;50.596;17.648;2023-05-31T08:01:19;25.20;63.90
22173;DHT22;11252;50.596;17.648;2023-05-31T08:03:47;25.20;65.70
22173;DHT22;11252;50.596;17.648;2023-05-31T08:06:16;25.50;61.40
22173;DHT22;11252;50.596;17.648;2023-05-31T08:08:44;25.50;62.30
22173;DHT22;11252;50.596;17.648;2023-05-31T08:11:12;25.50;63.40
22173;DHT22;11252;50.596;17.648;2023-05-31T08:13:39;25.40;62.40
22173;DHT22;11252;50.596;17.648;2023-05-31T08:16:07;25.60;61.90
22173;DHT22;11252;50.596;17.648;2023-05-31T08:18:35;25.70;60.00
22173;DHT22;11252;50.596;17.648;2023-05-31T08:21:02;25.60;60.50
22173;DHT22;11252;50.596;17.648;2023-05-31T08:23:30;25.60;59.50
22173;DHT22;11252;50.596;17.648;2023-05-31T08:25:57;25.90;59.30
22173;DHT22;11252;50.596;17.648;2023-05-31T08:28:25;26.10;57.40
22173;DHT22;11252;50.596;17.648;2023-05-31T08:30:52;26.10;57.30
22173;DHT22;11252;50.596;17.648;2023-05-31T08:33:19;26.20;58.70
22173;DHT22;11252;50.596;17.648;2023-05-31T08:35:47;26.50;56.30
22173;DHT22;11252;50.596;17.648;2023-05-31T08:38:15;26.50;56.60
22173;DHT22;11252;50.596;17.648;2023-05-31T08:40:44;26.70;55.50
22173;DHT22;11252;50.596;17.648;2023-05-31T08:43:13;26.70;56.20
22173;DHT22;11252;50.596;17.648;2023-05-31T08:45:43;26.80;57.40
22173;DHT22;11252;50.596;17.648;2023-05-31T08:48:40;26.90;57.40
22173;DHT22;11252;50.596;17.648;2023-05-31T08:51:09;26.80;56.80
22173;DHT22;11252;50.596;17.648;2023-05-31T08:53:37;27.10;57.00
22173;DHT22;11252;50.596;17.648;2023-05-31T08:56:06;27.10;54.90
22173;DHT22;11252;50.596;17.648;2023-05-31T08:58:34;26.90;55.10
22173;DHT22;11252;50.596;17.648;2023-05-31T09:01:03;26.90;55.40
22173;DHT22;11252;50.596;17.648;2023-05-31T09:03:31;26.70;56.80
22173;DHT22;11252;50.596;17.648;2023-05-31T09:05:59;26.40;57.70
22173;DHT22;11252;50.596;17.648;2023-05-31T09:08:27;26.70;56.90
22173;DHT22;11252;50.596;17.648;2023-05-31T09:11:01;27.00;57.40
22173;DHT22;11252;50.596;17.648;2023-05-31T09:13:29;27.30;54.80
22173;DHT22;11252;50.596;17.648;2023-05-31T09:15:57;27.20;54.10
22173;DHT22;11252;50.596;17.648;2023-05-31T09:18:25;27.10;56.30
22173;DHT22;11252;50.596;17.648;2023-05-31T09:20:57;26.80;57.20
22173;DHT22;11252;50.596;17.648;2023-05-31T09:23:25;26.60;58.00
22173;DHT22;11252;50.596;17.648;2023-05-31T09:25:53;26.80;57.60
22173;DHT22;11252;50.596;17.648;2023-05-31T09:28:21;27.00;54.70
22173;DHT22;11252;50.596;17.648;2023-05-31T09:31:06;27.30;53.40
22173;DHT22;11252;50.596;17.648;2023-05-31T09:33:38;27.40;52.20
22173;DHT22;11252;50.596;17.648;2023-05-31T09:36:09;27.40;54.50
22173;DHT22;11252;50.596;17.648;2023-05-31T09:38:37;27.40;54.80
22173;DHT22;11252;50.596;17.648;2023-05-31T09:41:20;27.60;54.30
22173;DHT22;11252;50.596;17.648;2023-05-31T09:43:50;27.90;52.90
22173;DHT22;11252;50.596;17.648;2023-05-31T09:46:19;27.80;53.50
22173;DHT22;11252;50.596;17.648;2023-05-31T09:49:06;28.10;54.50
22173;DHT22;11252;50.596;17.648;2023-05-31T09:51:36;28.10;53.30
22173;DHT22;11252;50.596;17.648;2023-05-31T09:54:15;28.30;53.20
22173;DHT22;11252;50.596;17.648;2023-05-31T09:56:44;28.40;52.20
22173;DHT22;11252;50.596;17.648;2023-05-31T09:59:12;28.50;52.70
22173;DHT22;11252;50.596;17.648;2023-05-31T10:01:42;28.50;53.20
22173;DHT22;11252;50.596;17.648;2023-05-31T10:04:11;28.60;52.50
22173;DHT22;11252;50.596;17.648;2023-05-31T10:06:39;28.50;53.70
22173;DHT22;11252;50.596;17.648;2023-05-31T10:09:07;28.60;52.40
22173;DHT22;11252;50.596;17.648;2023-05-31T10:11:36;28.40;51.10
22173;DHT22;11252;50.596;17.648;2023-05-31T10:14:10;28.40;51.30
22173;DHT22;11252;50.596;17.648;2023-05-31T10:16:49;28.50;53.80
22173;DHT22;11252;50.596;17.648;2023-05-31T10:19:22;28.30;53.20
22173;DHT22;11252;50.596;17.648;2023-05-31T10:21:52;28.20;53.30
22173;DHT22;11252;50.596;17.648;2023-05-31T10:24:25;28.40;52.70
22173;DHT22;11252;50.596;17.648;2023-05-31T10:27:00;28.40;50.60
22173;DHT22;11252;50.596;17.648;2023-05-31T10:29:35;28.40;53.20
22173;DHT22;11252;50.596;17.648;2023-05-31T10:32:18;28.50;50.80
22173;DHT22;11252;50.596;17.648;2023-05-31T10:34:47;28.60;51.30
22173;DHT22;11252;50.596;17.648;2023-05-31T10:37:16;28.70;51.10
22173;DHT22;11252;50.596;17.648;2023-05-31T10:42:44;28.60;52.80
22173;DHT22;11252;50.596;17.648;2023-05-31T10:45:42;29.00;50.70
22173;DHT22;11252;50.596;17.648;2023-05-31T10:51:16;29.00;51.40
22173;DHT22;11252;50.596;17.648;2023-05-31T10:53:45;28.90;50.50
22173;DHT22;11252;50.596;17.648;2023-05-31T10:56:14;28.90;51.40
22173;DHT22;11252;50.596;17.648;2023-05-31T10:58:43;28.70;52.70
22173;DHT22;11252;50.596;17.648;2023-05-31T11:01:16;28.80;51.80
22173;DHT22;11252;50.596;17.648;2023-05-31T11:06:30;28.80;53.00
22173;DHT22;11252;50.596;17.648;2023-05-31T11:09:14;29.10;52.00
22173;DHT22;11252;50.596;17.648;2023-05-31T11:11:46;29.30;51.20
22173;DHT22;11252;50.596;17.648;2023-05-31T11:14:25;29.50;48.70
22173;DHT22;11252;50.596;17.648;2023-05-31T11:19:28;29.40;49.30
22173;DHT22;11252;50.596;17.648;2023-05-31T11:22:08;29.30;48.40
22173;DHT22;11252;50.596;17.648;2023-05-31T11:24:50;29.30;51.40
22173;DHT22;11252;50.596;17.648;2023-05-31T11:27:22;28.60;50.00
22173;DHT22;11252;50.596;17.648;2023-05-31T11:32:21;27.80;50.90
22173;DHT22;11252;50.596;17.648;2023-05-31T11:35:03;27.80;52.80
22173;DHT22;11252;50.596;17.648;2023-05-31T11:37:32;27.90;52.80
22173;DHT22;11252;50.596;17.648;2023-05-31T11:40:01;27.70;52.10
22173;DHT22;11252;50.596;17.648;2023-05-31T11:42:30;27.70;53.10
22173;DHT22;11252;50.596;17.648;2023-05-31T11:45:03;27.70;53.30
22173;DHT22;11252;50.596;17.648;2023-05-31T11:50:25;27.50;52.70
22173;DHT22;11252;50.596;17.648;2023-05-31T11:52:53;27.40;52.30
22173;DHT22;11252;50.596;17.648;2023-05-31T11:55:30;27.50;52.70
22173;DHT22;11252;50.596;17.648;2023-05-31T11:58:05;27.40;53.30
22173;DHT22;11252;50.596;17.648;2023-05-31T12:00:34;27.40;54.70
22173;DHT22;11252;50.596;17.648;2023-05-31T12:03:07;27.10;54.40
22173;DHT22;11252;50.596;17.648;2023-05-31T12:05:34;26.90;53.70
22173;DHT22;11252;50.596;17.648;2023-05-31T12:08:04;26.60;54.30
22173;DHT22;11252;50.596;17.648;2023-05-31T12:10:36;26.50;55.10
22173;DHT22;11252;50.596;17.648;2023-05-31T12:13:04;26.20;55.00
22173;DHT22;11252;50.596;17.648;2023-05-31T12:15:31;25.70;54.80
22173;DHT22;11252;50.596;17.648;2023-05-31T12:17:59;25.60;55.20
22173;DHT22;11252;50.596;17.648;2023-05-31T12:20:30;25.80;55.30
22173;DHT22;11252;50.596;17.648;2023-05-31T12:23:15;25.90;56.10
22173;DHT22;11252;50.596;17.648;2023-05-31T12:25:49;25.90;55.30
22173;DHT22;11252;50.596;17.648;2023-05-31T12:28:20;25.60;56.00
22173;DHT22;11252;50.596;17.648;2023-05-31T12:30:49;25.30;56.30
22173;DHT22;11252;50.596;17.648;2023-05-31T12:33:19;25.10;57.80
22173;DHT22;11252;50.596;17.648;2023-05-31T12:35:47;24.90;57.50
22173;DHT22;11252;50.596;17.648;2023-05-31T12:38:15;24.90;57.20
22173;DHT22;11252;50.596;17.648;2023-05-31T12:40:44;25.00;58.20
22173;DHT22;11252;50.596;17.648;2023-05-31T12:43:12;25.10;57.30
22173;DHT22;11252;50.596;17.648;2023-05-31T12:45:42;25.30;56.00
22173;DHT22;11252;50.596;17.648;2023-05-31T12:48:10;25.20;56.70
22173;DHT22;11252;50.596;17.648;2023-05-31T12:50:45;25.10;55.50
22173;DHT22;11252;50.596;17.648;2023-05-31T12:53:13;25.10;57.80
22173;DHT22;11252;50.596;17.648;2023-05-31T12:55:40;25.00;56.20
22173;DHT22;11252;50.596;17.648;2023-05-31T12:58:08;24.80;57.40
22173;DHT22;11252;50.596;17.648;2023-05-31T13:00:36;24.70;56.60
22173;DHT22;11252;50.596;17.648;2023-05-31T13:03:04;24.60;57.10
22173;DHT22;11252;50.596;17.648;2023-05-31T13:05:32;24.50;56.80
22173;DHT22;11252;50.596;17.648;2023-05-31T13:07:59;24.40;56.80
22173;DHT22;11252;50.596;17.648;2023-05-31T13:10:27;24.30;57.80
22173;DHT22;11252;50.596;17.648;2023-05-31T13:12:54;24.40;59.10
22173;DHT22;11252;50.596;17.648;2023-05-31T13:15:22;24.40;57.60
22173;DHT22;11252;50.596;17.648;2023-05-31T13:17:49;24.40;57.10
22173;DHT22;11252;50.596;17.648;2023-05-31T13:20:16;24.30;56.40
22173;DHT22;11252;50.596;17.648;2023-05-31T13:22:44;24.20;56.90
22173;DHT22;11252;50.596;17.648;2023-05-31T13:25:11;24.10;56.30
22173;DHT22;11252;50.596;17.648;2023-05-31T13:27:38;23.90;56.40
22173;DHT22;11252;50.596;17.648;2023-05-31T13:30:08;24.00;57.90
22173;DHT22;11252;50.596;17.648;2023-05-31T13:32:36;24.00;56.30
22173;DHT22;11252;50.596;17.648;2023-05-31T13:35:04;24.00;56.60
22173;DHT22;11252;50.596;17.648;2023-05-31T13:37:31;24.10;57.30
22173;DHT22;11252;50.596;17.648;2023-05-31T13:40:00;24.10;57.60
22173;DHT22;11252;50.596;17.648;2023-05-31T13:42:27;24.20;55.30
22173;DHT22;11252;50.596;17.648;2023-05-31T13:44:55;24.40;54.80
22173;DHT22;11252;50.596;17.648;2023-05-31T13:47:23;24.40;55.30
22173;DHT22;11252;50.596;17.648;2023-05-31T13:49:51;24.40;57.20
22173;DHT22;11252;50.596;17.648;2023-05-31T13:52:18;24.40;57.20
22173;DHT22;11252;50.596;17.648;2023-05-31T13:54:46;24.40;56.30
22173;DHT22;11252;50.596;17.648;2023-05-31T13:57:13;24.40;57.40
22173;DHT22;11252;50.596;17.648;2023-05-31T13:59:40;24.40;56.30
22173;DHT22;11252;50.596;17.648;2023-05-31T14:02:08;24.40;57.30
22173;DHT22;11252;50.596;17.648;2023-05-31T14:04:35;24.30;56.60
22173;DHT22;11252;50.596;17.648;2023-05-31T14:07:02;24.30;55.80
22173;DHT22;11252;50.596;17.648;2023-05-31T14:09:30;24.20;56.00
22173;DHT22;11252;50.596;17.648;2023-05-31T14:11:59;24.20;54.70
22173;DHT22;11252;50.596;17.648;2023-05-31T14:14:26;24.30;56.00
22173;DHT22;11252;50.596;17.648;2023-05-31T14:16:54;24.20;56.60
22173;DHT22;11252;50.596;17.648;2023-05-31T14:19:22;24.20;56.60
22173;DHT22;11252;50.596;17.648;2023-05-31T14:21:49;24.20;55.10
22173;DHT22;11252;50.596;17.648;2023-05-31T14:24:17;24.30;55.90
22173;DHT22;11252;50.596;17.648;2023-05-31T14:26:44;24.30;56.90
22173;DHT22;11252;50.596;17.648;2023-05-31T14:29:11;24.30;55.00
22173;DHT22;11252;50.596;17.648;2023-05-31T14:31:42;24.30;55.30
22173;DHT22;11252;50.596;17.648;2023-05-31T14:34:10;24.30;55.40
22173;DHT22;11252;50.596;17.648;2023-05-31T14:36:46;24.30;55.90
22173;DHT22;11252;50.596;17.648;2023-05-31T14:39:14;24.10;56.20
22173;DHT22;11252;50.596;17.648;2023-05-31T14:41:42;24.10;56.90
22173;DHT22;11252;50.596;17.648;2023-05-31T14:44:09;24.10;56.30
22173;DHT22;11252;50.596;17.648;2023-05-31T14:46:36;24.20;57.70
22173;DHT22;11252;50.596;17.648;2023-05-31T14:49:04;24.10;57.40
22173;DHT22;11252;50.596;17.648;2023-05-31T14:51:34;24.10;56.40
22173;DHT22;11252;50.596;17.648;2023-05-31T14:54:02;24.00;56.50
22173;DHT22;11252;50.596;17.648;2023-05-31T14:56:29;24.00;55.70
22173;DHT22;11252;50.596;17.648;2023-05-31T14:58:57;23.90;56.40
22173;DHT22;11252;50.596;17.648;2023-05-31T15:01:25;23.80;56.80
22173;DHT22;11252;50.596;17.648;2023-05-31T15:03:52;23.80;57.60
22173;DHT22;11252;50.596;17.648;2023-05-31T15:06:20;23.80;57.20
22173;DHT22;11252;50.596;17.648;2023-05-31T15:08:48;23.90;56.90
22173;DHT22;11252;50.596;17.648;2023-05-31T15:11:16;23.90;57.30
22173;DHT22;11252;50.596;17.648;2023-05-31T15:13:43;23.90;57.70
22173;DHT22;11252;50.596;17.648;2023-05-31T15:16:10;23.90;57.90
22173;DHT22;11252;50.596;17.648;2023-05-31T15:18:38;23.90;56.70
22173;DHT22;11252;50.596;17.648;2023-05-31T15:21:06;24.00;56.10
22173;DHT22;11252;50.596;17.648;2023-05-31T15:23:34;24.00;57.00
22173;DHT22;11252;50.596;17.648;2023-05-31T15:26:02;24.00;57.70
22173;DHT22;11252;50.596;17.648;2023-05-31T15:28:29;24.00;57.90
22173;DHT22;11252;50.596;17.648;2023-05-31T15:30:57;24.00;57.30
22173;DHT22;11252;50.596;17.648;2023-05-31T15:33:25;23.90;57.20
22173;DHT22;11252;50.596;17.648;2023-05-31T15:35:52;24.00;57.70
22173;DHT22;11252;50.596;17.648;2023-05-31T15:38:19;24.00;57.50
22173;DHT22;11252;50.596;17.648;2023-05-31T15:40:47;24.00;58.70
22173;DHT22;11252;50.596;17.648;2023-05-31T15:43:14;24.00;58.10
22173;DHT22;11252;50.596;17.648;2023-05-31T15:45:43;24.00;58.90
22173;DHT22;11252;50.596;17.648;2023-05-31T15:48:11;24.00;58.30
22173;DHT22;11252;50.596;17.648;2023-05-31T15:50:38;24.00;58.20
22173;DHT22;11252;50.596;17.648;2023-05-31T15:53:07;24.00;58.10